Time;durP1;ratioP1;P1;durP2;ratioP2;P2;SDS_P1;SDS_P2;PMS_P1;PMS_P2;Temp;Humidity;BMP_temperature;BMP_pressure;BME280_temperature;BME280_humidity;BME280_pressure;Samples;Min_cycle;Max_cycle;Signal;HPM_P1;HPM_P2
2023/12/11 00:00:06;;;;;;;2;0.7;;;;;;;;;;;;;
2023/12/11 00:02:33;;;;;;;2.1;0.5;;;;;;;;;;;;;
2023/12/11 00:04:58;;;;;;;0.9;0.6;;;;;;;;;;;;;
2023/12/11 00:07:32;;;;;;;1.1;0.6;;;;;;;;;;;;;
2023/12/11 00:10:08;;;;;;;0.6;0.5;;;;;;;;;;;;;
2023/12/11 00:12:33;;;;;;;1;0.6;;;;;;;;;;;;;
2023/12/11 00:15:10;;;;;;;1;0.5;;;;;;;;;;;;;
2023/12/11 00:17:33;;;;;;;1.4;0.6;;;;;;;;;;;;;
2023/12/11 00:19:59;;;;;;;1.5;0.7;;;;;;;;;;;;;
2023/12/11 00:22:24;;;;;;;0.7;0.6;;;;;;;;;;;;;
2023/12/11 00:24:52;;;;;;;1.5;0.8;;;;;;;;;;;;;
2023/12/11 00:27:17;;;;;;;0.4;0.4;;;;;;;;;;;;;
2023/12/11 00:29:46;;;;;;;0.5;0.4;;;;;;;;;;;;;
2023/12/11 00:32:15;;;;;;;0.5;0.5;;;;;;;;;;;;;
2023/12/11 00:34:41;;;;;;;1.4;0.5;;;;;;;;;;;;;
2023/12/11 00:37:14;;;;;;;0.9;0.4;;;;;;;;;;;;;
2023/12/11 00:39:40;;;;;;;0.7;0.6;;;;;;;;;;;;;
2023/12/11 00:42:06;;;;;;;0.6;0.6;;;;;;;;;;;;;
2023/12/11 00:44:35;;;;;;;0.7;0.7;;;;;;;;;;;;;
2023/12/11 00:47:07;;;;;;;0.9;0.6;;;;;;;;;;;;;
2023/12/11 00:49:36;;;;;;;1;0.7;;;;;;;;;;;;;
2023/12/11 00:52:01;;;;;;;1.2;1;;;;;;;;;;;;;
2023/12/11 00:54:29;;;;;;;1.2;0.8;;;;;;;;;;;;;
2023/12/11 00:56:54;;;;;;;1.6;1.5;;;;;;;;;;;;;
2023/12/11 00:59:20;;;;;;;1.1;1.1;;;;;;;;;;;;;
2023/12/11 01:01:45;;;;;;;3.6;2.6;;;;;;;;;;;;;
2023/12/11 01:04:13;;;;;;;3.4;3.1;;;;;;;;;;;;;
2023/12/11 01:06:38;;;;;;;5.1;2.7;;;;;;;;;;;;;
2023/12/11 01:09:10;;;;;;;4.6;3.5;;;;;;;;;;;;;
2023/12/11 01:11:38;;;;;;;5.1;3.9;;;;;;;;;;;;;
2023/12/11 01:14:03;;;;;;;2.3;1.7;;;;;;;;;;;;;
2023/12/11 01:16:30;;;;;;;1.9;1.2;;;;;;;;;;;;;
2023/12/11 01:18:56;;;;;;;1.4;1.1;;;;;;;;;;;;;
2023/12/11 01:21:23;;;;;;;1.2;1;;;;;;;;;;;;;
2023/12/11 01:23:48;;;;;;;1.5;1.1;;;;;;;;;;;;;
2023/12/11 01:26:18;;;;;;;2;1;;;;;;;;;;;;;
2023/12/11 01:28:40;;;;;;;1.4;0.8;;;;;;;;;;;;;
2023/12/11 01:31:09;;;;;;;30.1;17.3;;;;;;;;;;;;;
2023/12/11 01:33:39;;;;;;;21;13.3;;;;;;;;;;;;;
2023/12/11 01:36:06;;;;;;;7.5;4.8;;;;;;;;;;;;;
2023/12/11 01:38:31;;;;;;;5.9;3.1;;;;;;;;;;;;;
2023/12/11 01:40:57;;;;;;;5.2;2.5;;;;;;;;;;;;;
2023/12/11 01:43:23;;;;;;;6.4;2.6;;;;;;;;;;;;;
2023/12/11 01:45:51;;;;;;;6.7;3;;;;;;;;;;;;;
2023/12/11 01:48:16;;;;;;;4.6;2.5;;;;;;;;;;;;;
2023/12/11 01:50:46;;;;;;;8.4;3;;;;;;;;;;;;;
2023/12/11 01:53:11;;;;;;;6.4;2.3;;;;;;;;;;;;;
2023/12/11 01:55:38;;;;;;;4.3;2.5;;;;;;;;;;;;;
2023/12/11 01:58:04;;;;;;;4.5;2.4;;;;;;;;;;;;;
2023/12/11 02:00:29;;;;;;;4.3;2.2;;;;;;;;;;;;;
2023/12/11 02:02:54;;;;;;;2.9;1.8;;;;;;;;;;;;;
2023/12/11 02:05:24;;;;;;;3.1;1.3;;;;;;;;;;;;;
2023/12/11 02:07:53;;;;;;;1.3;1.1;;;;;;;;;;;;;
2023/12/11 02:10:19;;;;;;;2.8;1.4;;;;;;;;;;;;;
2023/12/11 02:12:48;;;;;;;1.6;1.1;;;;;;;;;;;;;
2023/12/11 02:15:13;;;;;;;1.4;1.1;;;;;;;;;;;;;
2023/12/11 02:17:38;;;;;;;2.1;1.2;;;;;;;;;;;;;
2023/12/11 02:20:04;;;;;;;2.4;1.2;;;;;;;;;;;;;
2023/12/11 02:22:29;;;;;;;1.7;1;;;;;;;;;;;;;
2023/12/11 02:24:55;;;;;;;1.8;1;;;;;;;;;;;;;
2023/12/11 02:27:21;;;;;;;1.3;0.9;;;;;;;;;;;;;
2023/12/11 02:29:50;;;;;;;1.7;1;;;;;;;;;;;;;
2023/12/11 02:32:13;;;;;;;2.3;1.3;;;;;;;;;;;;;
2023/12/11 02:34:40;;;;;;;2.7;1.8;;;;;;;;;;;;;
2023/12/11 02:37:05;;;;;;;2.3;2.2;;;;;;;;;;;;;
2023/12/11 02:39:33;;;;;;;2.1;1.3;;;;;;;;;;;;;
2023/12/11 02:41:58;;;;;;;2.1;1.2;;;;;;;;;;;;;
2023/12/11 02:44:26;;;;;;;2.1;1.2;;;;;;;;;;;;;
2023/12/11 02:46:49;;;;;;;1.7;1.6;;;;;;;;;;;;;
2023/12/11 02:49:18;;;;;;;2.7;2.2;;;;;;;;;;;;;
2023/12/11 02:51:46;;;;;;;2.8;2.3;;;;;;;;;;;;;
2023/12/11 02:54:11;;;;;;;1.9;1.7;;;;;;;;;;;;;
2023/12/11 02:56:37;;;;;;;2.8;2.2;;;;;;;;;;;;;
2023/12/11 02:59:02;;;;;;;1.8;1.6;;;;;;;;;;;;;
2023/12/11 03:01:27;;;;;;;1.9;1.5;;;;;;;;;;;;;
2023/12/11 03:03:52;;;;;;;2.2;2.1;;;;;;;;;;;;;
2023/12/11 03:06:18;;;;;;;4.6;4.3;;;;;;;;;;;;;
2023/12/11 03:08:43;;;;;;;2.4;2.2;;;;;;;;;;;;;
2023/12/11 03:11:09;;;;;;;1.5;1.4;;;;;;;;;;;;;
2023/12/11 03:13:35;;;;;;;0.6;0.6;;;;;;;;;;;;;
2023/12/11 03:16:03;;;;;;;0.6;0.6;;;;;;;;;;;;;
2023/12/11 03:18:28;;;;;;;1.2;1;;;;;;;;;;;;;
2023/12/11 03:20:53;;;;;;;2.2;1.4;;;;;;;;;;;;;
2023/12/11 03:23:18;;;;;;;1;0.7;;;;;;;;;;;;;
2023/12/11 03:25:45;;;;;;;6.3;5.8;;;;;;;;;;;;;
2023/12/11 03:28:11;;;;;;;6.4;5.8;;;;;;;;;;;;;
2023/12/11 03:30:38;;;;;;;12.8;11.8;;;;;;;;;;;;;
2023/12/11 03:33:03;;;;;;;2.5;2.1;;;;;;;;;;;;;
2023/12/11 03:35:30;;;;;;;1.7;1.5;;;;;;;;;;;;;
2023/12/11 03:37:55;;;;;;;1.8;1.2;;;;;;;;;;;;;
2023/12/11 03:40:22;;;;;;;3.8;2.6;;;;;;;;;;;;;
2023/12/11 03:42:47;;;;;;;4.3;2.7;;;;;;;;;;;;;
2023/12/11 03:45:16;;;;;;;4.3;2.5;;;;;;;;;;;;;
2023/12/11 03:47:46;;;;;;;5;4.1;;;;;;;;;;;;;
2023/12/11 03:50:15;;;;;;;10.8;9.9;;;;;;;;;;;;;
2023/12/11 03:52:40;;;;;;;9.6;8.7;;;;;;;;;;;;;
2023/12/11 03:55:08;;;;;;;13;11.4;;;;;;;;;;;;;
2023/12/11 03:57:38;;;;;;;7.6;5.6;;;;;;;;;;;;;
2023/12/11 04:00:03;;;;;;;3.8;3.4;;;;;;;;;;;;;
2023/12/11 04:02:48;;;;;;;2.2;1.6;;;;;;;5.44;100;930.5332;;;;
2023/12/11 04:05:18;;;;;;;6.5;3.4;;;;;;;5.4;100;930.421;;;;
2023/12/11 04:07:49;;;;;;;3;2.1;;;;;;;5.42;100;930.4673;;;;
2023/12/11 04:10:18;;;;;;;1.5;1.4;;;;;;;5.52;100;930.4792;;;;
2023/12/11 04:12:44;;;;;;;1.7;1.4;;;;;;;5.6;100;930.6367;;;;
2023/12/11 04:15:12;;;;;;;2.1;1.5;;;;;;;5.69;100;930.565;;;;
2023/12/11 04:17:38;;;;;;;2.9;1.7;;;;;;;5.74;100;930.5681;;;;
2023/12/11 04:20:03;;;;;;;2.9;1.9;;;;;;;5.62;100;930.4242;;;;
2023/12/11 04:22:30;;;;;;;2;1.4;;;;;;;5.56;100;930.4727;;;;
2023/12/11 04:24:59;;;;;;;2.9;1.9;;;;;;;5.5;100;930.3889;;;;
2023/12/11 04:27:25;;;;;;;3.1;2.2;;;;;;;5.46;100;930.3677;;;;
2023/12/11 04:29:52;;;;;;;7.6;4.2;;;;;;;5.48;100;930.1597;;;;
2023/12/11 04:32:19;;;;;;;7;3.9;;;;;;;5.48;100;930.2512;;;;
2023/12/11 04:34:47;;;;;;;3.5;2.4;;;;;;;5.38;100;930.0717;;;;
2023/12/11 04:37:13;;;;;;;4;2.4;;;;;;;5.47;100;930.0396;;;;
2023/12/11 04:39:43;;;;;;;2.5;2;;;;;;;5.39;99.97852;930.0222;;;;
2023/12/11 04:42:08;;;;;;;3.1;2;;;;;;;5.31;100;929.815;;;;
2023/12/11 04:44:39;;;;;;;3.4;2;;;;;;;5.26;100;930.1259;;;;
2023/12/11 04:47:03;;;;;;;2;1.8;;;;;;;5.27;100;930.0645;;;;
2023/12/11 04:49:32;;;;;;;3.7;2;;;;;;;5.14;100;930.0686;;;;
2023/12/11 04:51:56;;;;;;;1.7;1.6;;;;;;;5.19;100;930.2673;;;;
2023/12/11 04:54:24;;;;;;;1.9;1.7;;;;;;;5.21;100;930.1527;;;;
2023/12/11 04:56:49;;;;;;;1.9;1.6;;;;;;;5.31;100;930.0999;;;;
2023/12/11 04:59:17;;;;;;;1.9;1.1;;;;;;;5.47;100;930.165;;;;
2023/12/11 05:01:42;;;;;;;1.6;1.5;;;;;;;5.51;100;930.2098;;;;
2023/12/11 05:04:07;;;;;;;1.5;1.4;;;;;;;5.38;100;930.0726;;;;
2023/12/11 05:06:35;;;;;;;1.8;1.4;;;;;;;5.35;100;929.8172;;;;
2023/12/11 05:08:59;;;;;;;2.3;1.7;;;;;;;5.35;100;929.8141;;;;
2023/12/11 05:11:26;;;;;;;1.8;1.7;;;;;;;5.32;100;929.8436;;;;
2023/12/11 05:13:51;;;;;;;2.3;2.1;;;;;;;5.34;100;929.8755;;;;
2023/12/11 05:16:20;;;;;;;2.4;2.1;;;;;;;5.25;100;929.717;;;;
2023/12/11 05:18:45;;;;;;;2.5;2.2;;;;;;;5.26;100;929.8142;;;;
2023/12/11 05:21:10;;;;;;;3;2.2;;;;;;;5.32;100;929.7756;;;;
2023/12/11 05:23:40;;;;;;;3.9;2.4;;;;;;;5.17;100;929.7715;;;;
2023/12/11 05:26:06;;;;;;;4.5;2.4;;;;;;;5.21;100;929.8427;;;;
2023/12/11 05:28:31;;;;;;;4.1;1.8;;;;;;;5.15;100;929.8651;;;;
2023/12/11 05:30:59;;;;;;;2.9;1.8;;;;;;;5.16;100;929.8739;;;;
2023/12/11 05:33:24;;;;;;;3.2;2.5;;;;;;;5.14;100;929.7537;;;;
2023/12/11 05:35:49;;;;;;;2.6;2;;;;;;;5.09;100;929.7222;;;;
2023/12/11 05:38:23;;;;;;;3.9;2.2;;;;;;;5.12;100;929.912;;;;
2023/12/11 05:40:54;;;;;;;3.7;2;;;;;;;5.18;100;929.8962;;;;
2023/12/11 05:43:27;;;;;;;3.5;2.5;;;;;;;5.22;100;929.8964;;;;
2023/12/11 05:45:57;;;;;;;3.2;2.1;;;;;;;5.21;100;929.8806;;;;
2023/12/11 05:48:21;;;;;;;3.1;2;;;;;;;5.24;100;929.9094;;;;
2023/12/11 05:50:52;;;;;;;2.2;1.8;;;;;;;5.12;100;929.8158;;;;
2023/12/11 05:53:23;;;;;;;3.5;2.4;;;;;;;5.11;100;929.7247;;;;
2023/12/11 05:55:53;;;;;;;4.6;2.6;;;;;;;5.21;100;929.8181;;;;
2023/12/11 05:58:19;;;;;;;6.6;3.9;;;;;;;5.2;100;929.8375;;;;
2023/12/11 06:00:47;;;;;;;8.5;4.5;;;;;;;5.19;100;929.8477;;;;
2023/12/11 06:03:13;;;;;;;6;4.2;;;;;;;5.21;100;929.8378;;;;
2023/12/11 06:05:42;;;;;;;7.5;5;;;;;;;5.2;100;929.9281;;;;
2023/12/11 06:08:13;;;;;;;14.7;8.6;;;;;;;5.2;100;930.0189;;;;
2023/12/11 06:10:42;;;;;;;16.5;9.8;;;;;;;5.21;100;930.2498;;;;
2023/12/11 06:13:07;;;;;;;7;4.2;;;;;;;5.37;100;930.3147;;;;
2023/12/11 06:15:38;;;;;;;6.2;3;;;;;;;5.4;100;930.4241;;;;
2023/12/11 06:18:03;;;;;;;6.8;3.9;;;;;;;5.4;100;930.3981;;;;
2023/12/11 06:20:31;;;;;;;6.1;4;;;;;;;5.42;100;930.6102;;;;
2023/12/11 06:22:57;;;;;;;5.3;3;;;;;;;5.33;100;930.4958;;;;
2023/12/11 06:25:26;;;;;;;4.4;3.3;;;;;;;5.29;100;930.4603;;;;
2023/12/11 06:27:54;;;;;;;7.2;5.1;;;;;;;5.32;100;930.3747;;;;
2023/12/11 06:30:20;;;;;;;5.7;3.9;;;;;;;5.36;100;930.4844;;;;
2023/12/11 06:32:47;;;;;;;4.3;2.9;;;;;;;5.3;100;930.3769;;;;
2023/12/11 06:35:13;;;;;;;4.2;2.7;;;;;;;5.27;100;930.2831;;;;
2023/12/11 06:37:43;;;;;;;3.7;2.7;;;;;;;5.25;100;930.2719;;;;
2023/12/11 06:40:13;;;;;;;4.2;2.6;;;;;;;5.42;100;930.3016;;;;
2023/12/11 06:42:38;;;;;;;4.3;2.7;;;;;;;5.26;100;930.2151;;;;
2023/12/11 06:45:05;;;;;;;4.9;2.8;;;;;;;5.27;100;930.2217;;;;
2023/12/11 06:47:30;;;;;;;4;2.3;;;;;;;5.36;100;930.182;;;;
2023/12/11 06:49:59;;;;;;;2.8;2;;;;;;;5.3;100;930.0999;;;;
2023/12/11 06:52:25;;;;;;;3.6;2.4;;;;;;;5.35;100;929.9799;;;;
2023/12/11 06:54:53;;;;;;;2.5;1.8;;;;;;;5.59;100;930.1013;;;;
2023/12/11 06:57:17;;;;;;;2.9;2.1;;;;;;;5.82;100;929.8942;;;;
2023/12/11 06:59:42;;;;;;;2.6;1.4;;;;;;;5.93;100;929.9994;;;;
2023/12/11 07:02:14;;;;;;;1.4;1.3;;;;;;;5.89;100;930.2347;;;;
2023/12/11 07:04:42;;;;;;;3.7;2.8;;;;;;;5.82;100;930.0609;;;;
2023/12/11 07:07:15;;;;;;;4.9;3.1;;;;;;;5.65;100;929.9398;;;;
2023/12/11 07:09:39;;;;;;;7.5;4.3;;;;;;;5.61;100;929.8848;;;;
2023/12/11 07:12:08;;;;;;;10.6;6.7;;;;;;;5.48;100;929.8439;;;;
2023/12/11 07:14:32;;;;;;;10.9;6.8;;;;;;;5.67;100;929.8254;;;;
2023/12/11 07:16:58;;;;;;;7.8;4.8;;;;;;;5.64;100;929.7706;;;;
2023/12/11 07:19:24;;;;;;;5.2;3.6;;;;;;;5.63;100;929.8463;;;;
2023/12/11 07:21:53;;;;;;;11.1;6.9;;;;;;;5.72;100;929.9367;;;;
2023/12/11 07:24:19;;;;;;;7.8;5.1;;;;;;;5.64;100;929.9056;;;;
2023/12/11 07:26:46;;;;;;;6.3;4.6;;;;;;;5.58;100;929.8374;;;;
2023/12/11 07:29:11;;;;;;;6.4;4;;;;;;;5.53;100;929.8967;;;;
2023/12/11 07:31:39;;;;;;;5.5;4.1;;;;;;;5.46;100;929.9399;;;;
2023/12/11 07:34:04;;;;;;;6.7;3.9;;;;;;;5.53;100;929.8912;;;;
2023/12/11 07:36:33;;;;;;;4.7;3.3;;;;;;;5.59;100;929.9442;;;;
2023/12/11 07:38:58;;;;;;;4.8;2.7;;;;;;;5.59;100;929.9299;;;;
2023/12/11 07:41:28;;;;;;;3.8;3.2;;;;;;;5.58;100;929.9101;;;;
2023/12/11 07:43:53;;;;;;;8.3;6;;;;;;;5.64;100;929.8631;;;;
2023/12/11 07:46:22;;;;;;;10;6.1;;;;;;;5.58;100;929.8137;;;;
2023/12/11 07:48:49;;;;;;;8.9;5.6;;;;;;;5.52;100;929.9589;;;;
2023/12/11 07:51:14;;;;;;;9.8;7.1;;;;;;;5.52;100;929.8806;;;;
2023/12/11 07:53:44;;;;;;;14.4;9.2;;;;;;;5.51;100;929.741;;;;
2023/12/11 07:56:08;;;;;;;10.8;7.7;;;;;;;5.56;100;929.8261;;;;
2023/12/11 07:58:36;;;;;;;9.3;6.6;;;;;;;5.56;100;929.71;;;;
2023/12/11 08:01:01;;;;;;;6.8;5.6;;;;;;;5.58;100;929.6558;;;;
2023/12/11 08:03:33;;;;;;;7.7;5.8;;;;;;;5.59;100;929.7191;;;;
2023/12/11 08:06:02;;;;;;;8.2;7.1;;;;;;;5.55;100;929.6822;;;;
2023/12/11 08:08:27;;;;;;;7.2;5.4;;;;;;;5.59;100;929.4711;;;;
2023/12/11 08:10:56;;;;;;;4.8;3.7;;;;;;;5.67;100;929.3264;;;;
2023/12/11 08:13:21;;;;;;;5.3;3.7;;;;;;;5.63;100;929.4333;;;;
2023/12/11 08:15:50;;;;;;;11;7.5;;;;;;;5.62;100;929.3748;;;;
2023/12/11 08:18:16;;;;;;;15.3;9.6;;;;;;;5.63;100;929.3828;;;;
2023/12/11 08:20:44;;;;;;;12.5;7.8;;;;;;;5.62;100;929.5137;;;;
2023/12/11 08:23:10;;;;;;;10;6.2;;;;;;;5.63;100;929.5636;;;;
2023/12/11 08:25:35;;;;;;;9.3;5.1;;;;;;;5.67;100;929.4102;;;;
2023/12/11 08:28:02;;;;;;;7.3;4.7;;;;;;;5.62;100;929.3432;;;;
2023/12/11 08:30:30;;;;;;;6.9;4.3;;;;;;;5.65;100;929.2369;;;;
2023/12/11 08:33:00;;;;;;;5.8;4.6;;;;;;;5.7;100;929.3678;;;;
2023/12/11 08:35:32;;;;;;;7.9;4.3;;;;;;;5.73;100;929.3762;;;;
2023/12/11 08:38:02;;;;;;;7.3;5.5;;;;;;;5.71;100;929.3845;;;;
2023/12/11 08:40:28;;;;;;;9.7;8.7;;;;;;;5.74;100;929.3953;;;;
2023/12/11 08:42:57;;;;;;;17.5;15.8;;;;;;;5.7;100;929.3709;;;;
2023/12/11 08:45:23;;;;;;;19.7;17.7;;;;;;;5.64;100;929.3956;;;;
2023/12/11 08:47:51;;;;;;;18.4;14.1;;;;;;;5.67;100;929.3162;;;;
2023/12/11 08:50:19;;;;;;;20.2;16.8;;;;;;;5.69;100;929.1135;;;;
2023/12/11 08:52:49;;;;;;;16.1;13;;;;;;;5.66;100;929.3579;;;;
2023/12/11 08:55:17;;;;;;;11.5;8.4;;;;;;;5.73;100;929.4852;;;;
2023/12/11 08:57:42;;;;;;;11.4;7.1;;;;;;;5.72;100;929.6154;;;;
2023/12/11 09:00:11;;;;;;;12.8;8.7;;;;;;;5.73;100;929.6509;;;;
2023/12/11 09:02:44;;;;;;;14.2;8.3;;;;;;;5.8;100;929.6646;;;;
2023/12/11 09:05:18;;;;;;;12.2;8.4;;;;;;;5.79;100;929.5215;;;;
2023/12/11 09:07:48;;;;;;;12.4;8.2;;;;;;;5.8;100;929.6322;;;;
2023/12/11 09:10:19;;;;;;;13;9.9;;;;;;;5.73;100;929.6447;;;;
2023/12/11 09:12:49;;;;;;;18.1;12.8;;;;;;;5.71;100;929.6041;;;;
2023/12/11 09:15:14;;;;;;;14.8;10.3;;;;;;;5.75;100;929.7413;;;;
2023/12/11 09:17:45;;;;;;;13.5;10.2;;;;;;;5.73;100;929.8541;;;;
2023/12/11 09:20:18;;;;;;;15;10.4;;;;;;;5.68;100;929.8809;;;;
2023/12/11 09:22:52;;;;;;;14.3;10.6;;;;;;;5.63;100;929.8984;;;;
2023/12/11 09:25:17;;;;;;;18.6;12.8;;;;;;;5.6;100;929.8298;;;;
2023/12/11 09:27:42;;;;;;;16.4;12.1;;;;;;;5.6;100;929.9371;;;;
2023/12/11 09:30:11;;;;;;;19.8;17;;;;;;;5.63;100;929.8747;;;;
2023/12/11 09:32:36;;;;;;;18.7;13.4;;;;;;;5.58;100;929.9739;;;;
2023/12/11 09:35:07;;;;;;;21.4;13.6;;;;;;;5.55;100;930.084;;;;
2023/12/11 09:37:32;;;;;;;22.6;14.5;;;;;;;5.55;100;930.3328;;;;
2023/12/11 09:40:01;;;;;;;26.4;18.2;;;;;;;5.59;100;930.2885;;;;
2023/12/11 09:42:34;;;;;;;33.6;21.7;;;;;;;5.6;100;930.1788;;;;
2023/12/11 09:45:05;;;;;;;26.2;16.1;;;;;;;5.59;100;930.3019;;;;
2023/12/11 09:47:37;;;;;;;30.8;17.9;;;;;;;5.63;100;930.3683;;;;
2023/12/11 09:50:13;;;;;;;33.4;22.7;;;;;;;5.67;100;930.2369;;;;
2023/12/11 09:52:37;;;;;;;29.3;20.7;;;;;;;5.59;100;930.3365;;;;
2023/12/11 09:55:08;;;;;;;25.2;18.3;;;;;;;5.56;100;930.3259;;;;
2023/12/11 09:57:36;;;;;;;27;16.7;;;;;;;5.63;100;930.3367;;;;
2023/12/11 10:00:03;;;;;;;24.9;15.7;;;;;;;5.61;100;930.2614;;;;
2023/12/11 10:02:34;;;;;;;25.1;17.4;;;;;;;5.6;100;930.2072;;;;
2023/12/11 10:05:01;;;;;;;24.1;16.1;;;;;;;5.67;100;930.2678;;;;
2023/12/11 10:07:31;;;;;;;20.5;14.5;;;;;;;5.66;100;930.0488;;;;
2023/12/11 10:10:03;;;;;;;16.6;12.8;;;;;;;5.72;100;930.1351;;;;
2023/12/11 10:12:34;;;;;;;19;15.8;;;;;;;5.72;100;930.1097;;;;
2023/12/11 10:15:10;;;;;;;14.4;11.3;;;;;;;5.68;100;930.0413;;;;
2023/12/11 10:17:45;;;;;;;13;10.7;;;;;;;5.69;100;930.103;;;;
2023/12/11 10:20:14;;;;;;;10.2;8.4;;;;;;;5.7;100;930.1561;;;;
2023/12/11 10:22:43;;;;;;;9.4;6.9;;;;;;;5.79;100;930.283;;;;
2023/12/11 10:25:18;;;;;;;11;9.9;;;;;;;5.8;100;930.3558;;;;
2023/12/11 10:27:47;;;;;;;10.3;7.8;;;;;;;5.79;100;930.3699;;;;
2023/12/11 10:30:23;;;;;;;3.9;2.8;;;;;;;6.06;100;930.3736;;;;
2023/12/11 10:32:53;;;;;;;5.8;4;;;;;;;6.08;100;930.3406;;;;
2023/12/11 10:35:23;;;;;;;5.7;4.2;;;;;;;6.02;100;930.2173;;;;
2023/12/11 10:37:48;;;;;;;5.5;4.9;;;;;;;6.02;100;930.1803;;;;
2023/12/11 10:40:23;;;;;;;6.3;5.1;;;;;;;5.99;100;930.3155;;;;
2023/12/11 10:42:49;;;;;;;8.1;7.3;;;;;;;5.97;100;930.2054;;;;
2023/12/11 10:45:27;;;;;;;5.4;4.9;;;;;;;6.01;100;930.3173;;;;
2023/12/11 10:47:56;;;;;;;5.1;3.3;;;;;;;6.02;100;930.2933;;;;
2023/12/11 10:50:22;;;;;;;6.1;3.9;;;;;;;6.03;100;930.363;;;;
2023/12/11 10:52:54;;;;;;;7.8;5.6;;;;;;;6.04;100;930.3805;;;;
2023/12/11 10:55:19;;;;;;;10.1;7.4;;;;;;;6.01;100;930.4089;;;;
2023/12/11 10:57:45;;;;;;;10.6;8.8;;;;;;;5.97;100;930.3934;;;;
2023/12/11 11:00:13;;;;;;;9.8;7.5;;;;;;;6.02;100;930.313;;;;
2023/12/11 11:02:35;;;;;;;17.2;11.4;;;;;;;5.95;100;930.1096;;;;
2023/12/11 11:05:00;;;;;;;29.9;18.5;;;;;;;5.9;100;930.0275;;;;
2023/12/11 11:07:32;;;;;;;27.9;19.2;;;;;;;5.86;100;930.0527;;;;
2023/12/11 11:09:56;;;;;;;23.3;16.6;;;;;;;5.87;100;930.0466;;;;
2023/12/11 11:12:27;;;;;;;20.2;14.4;;;;;;;5.85;100;930.0463;;;;
2023/12/11 11:14:56;;;;;;;28.4;19.2;;;;;;;5.83;100;930.0009;;;;
2023/12/11 11:17:22;;;;;;;21.8;16.7;;;;;;;5.83;100;929.892;;;;
2023/12/11 11:19:57;;;;;;;22.1;15.5;;;;;;;5.87;100;929.9335;;;;
2023/12/11 11:22:29;;;;;;;18.5;13.7;;;;;;;5.87;100;929.9581;;;;
2023/12/11 11:24:54;;;;;;;16.4;11.8;;;;;;;5.87;100;930.1041;;;;
2023/12/11 11:27:27;;;;;;;14.1;10.1;;;;;;;5.9;100;930.2338;;;;
2023/12/11 11:29:53;;;;;;;11.5;8.1;;;;;;;5.85;100;930.1592;;;;
2023/12/11 11:32:29;;;;;;;10.9;7.6;;;;;;;5.94;100;930.122;;;;
2023/12/11 11:34:52;;;;;;;10.8;7.9;;;;;;;5.88;100;930.1209;;;;
2023/12/11 11:37:17;;;;;;;15.9;10;;;;;;;5.84;100;930.1923;;;;
2023/12/11 11:39:42;;;;;;;19.7;13.3;;;;;;;5.83;100;930.0799;;;;
2023/12/11 11:42:13;;;;;;;22.3;15.3;;;;;;;5.82;100;929.9819;;;;
2023/12/11 11:44:40;;;;;;;31.7;18.6;;;;;;;5.82;100;930.0451;;;;
2023/12/11 11:47:05;;;;;;;30;18.9;;;;;;;5.83;100;930.1566;;;;
2023/12/11 11:49:31;;;;;;;36;21.6;;;;;;;5.83;100;930.0658;;;;
2023/12/11 11:51:56;;;;;;;37.8;25.6;;;;;;;5.89;100;930.0666;;;;
2023/12/11 11:54:25;;;;;;;51.9;36.7;;;;;;;5.86;100;930.1855;;;;
2023/12/11 11:56:49;;;;;;;42;27.7;;;;;;;5.88;100;930.3066;;;;
2023/12/11 11:59:19;;;;;;;34.1;22;;;;;;;5.86;100;930.3134;;;;
2023/12/11 12:01:43;;;;;;;31.7;20.2;;;;;;;5.8;100;930.2042;;;;
2023/12/11 12:04:08;;;;;;;28.8;17.6;;;;;;;5.77;100;930.1855;;;;
2023/12/11 12:06:34;;;;;;;27.8;17.8;;;;;;;5.76;100;930.0328;;;;
2023/12/11 12:09:09;;;;;;;30.8;18.7;;;;;;;5.76;100;929.8853;;;;
2023/12/11 12:11:35;;;;;;;29.1;17.1;;;;;;;5.79;100;929.8184;;;;
2023/12/11 12:14:00;;;;;;;27.9;16.9;;;;;;;5.74;100;929.798;;;;
2023/12/11 12:16:25;;;;;;;29.9;18;;;;;;;5.8;100;929.8201;;;;
2023/12/11 12:18:51;;;;;;;31.1;18.7;;;;;;;5.79;100;929.8019;;;;
2023/12/11 12:21:17;;;;;;;104.1;49.8;;;;;;;5.9;100;929.6586;;;;
2023/12/11 12:23:42;;;;;;;87;40.9;;;;;;;5.91;100;929.5536;;;;
2023/12/11 12:26:17;;;;;;;83.1;39.3;;;;;;;5.9;100;929.2896;;;;
2023/12/11 12:28:45;;;;;;;92.1;43.8;;;;;;;5.95;100;929.2609;;;;
2023/12/11 12:31:10;;;;;;;70;36.3;;;;;;;5.98;100;929.1658;;;;
2023/12/11 12:33:38;;;;;;;43.9;26.8;;;;;;;5.94;100;928.9394;;;;
2023/12/11 12:36:04;;;;;;;78.1;37.6;;;;;;;5.98;100;928.7383;;;;
2023/12/11 12:38:30;;;;;;;66.5;33.5;;;;;;;6.03;100;928.5953;;;;
2023/12/11 12:40:55;;;;;;;47.8;28.1;;;;;;;6.07;100;928.5958;;;;
2023/12/11 12:43:28;;;;;;;124.3;57.7;;;;;;;6.12;100;929.0048;;;;
2023/12/11 12:45:53;;;;;;;72.8;35.2;;;;;;;6.12;100;929.4419;;;;
2023/12/11 12:48:18;;;;;;;45;23.8;;;;;;;6.12;100;929.848;;;;
2023/12/11 12:50:43;;;;;;;60.2;29.2;;;;;;;6.13;100;929.7581;;;;
2023/12/11 12:53:14;;;;;;;30.4;15.6;;;;;;;6.21;100;929.7554;;;;
2023/12/11 12:55:48;;;;;;;17.2;11.1;;;;;;;6.23;100;929.7509;;;;
2023/12/11 12:58:14;;;;;;;13.8;8.3;;;;;;;6.29;100;929.5792;;;;
2023/12/11 13:00:42;;;;;;;15.1;10;;;;;;;6.27;100;929.5063;;;;
2023/12/11 13:03:08;;;;;;;140.9;58.3;;;;;;;6.29;100;929.7224;;;;
2023/12/11 13:05:33;;;;;;;107.3;45;;;;;;;6.36;100;929.7168;;;;
2023/12/11 13:08:02;;;;;;;216.7;87.2;;;;;;;6.27;100;929.7244;;;;
2023/12/11 13:10:32;;;;;;;184.3;67.9;;;;;;;6.27;100;929.8161;;;;
2023/12/11 13:13:00;;;;;;;283;101.4;;;;;;;6.29;100;930.0006;;;;
2023/12/11 13:15:25;;;;;;;174.6;74.7;;;;;;;6.21;100;930.1332;;;;
2023/12/11 13:17:52;;;;;;;112.3;55.3;;;;;;;6.13;100;930.1825;;;;
2023/12/11 13:20:20;;;;;;;20.6;13.8;;;;;;;6.21;100;930.2194;;;;
2023/12/11 13:22:48;;;;;;;19.5;12.9;;;;;;;6.07;100;930.1556;;;;
2023/12/11 13:25:14;;;;;;;22.8;13.8;;;;;;;6.03;100;929.8992;;;;
2023/12/11 13:27:47;;;;;;;21.6;13.8;;;;;;;5.98;100;929.7647;;;;
2023/12/11 13:30:19;;;;;;;19.8;12.2;;;;;;;5.95;100;929.9839;;;;
2023/12/11 13:32:47;;;;;;;20.4;12.1;;;;;;;5.94;100;930.183;;;;
2023/12/11 13:35:21;;;;;;;21.4;12.7;;;;;;;5.88;100;930.2269;;;;
2023/12/11 13:37:51;;;;;;;20.3;13.3;;;;;;;5.9;100;930.3119;;;;
2023/12/11 13:40:17;;;;;;;22.4;14.8;;;;;;;5.87;100;930.4533;;;;
2023/12/11 13:42:47;;;;;;;26.1;16.2;;;;;;;5.85;100;930.3898;;;;
2023/12/11 13:45:12;;;;;;;28.2;17.1;;;;;;;5.86;100;930.5212;;;;
2023/12/11 13:47:40;;;;;;;22.8;14.8;;;;;;;5.85;100;930.8425;;;;
2023/12/11 13:50:05;;;;;;;23.5;14.5;;;;;;;5.82;100;930.7379;;;;
2023/12/11 13:52:37;;;;;;;21.4;13.5;;;;;;;5.79;100;930.7664;;;;
2023/12/11 13:55:03;;;;;;;20.7;13.2;;;;;;;5.8;100;930.776;;;;
2023/12/11 13:57:37;;;;;;;24.8;16;;;;;;;5.76;100;930.7564;;;;
2023/12/11 14:00:02;;;;;;;22.5;14;;;;;;;5.78;100;930.6525;;;;
2023/12/11 14:02:34;;;;;;;20.9;12.6;;;;;;;5.83;100;930.5886;;;;
2023/12/11 14:05:03;;;;;;;16.7;11.2;;;;;;;5.85;100;930.7106;;;;
2023/12/11 14:07:31;;;;;;;21.2;12.6;;;;;;;5.77;100;930.6317;;;;
2023/12/11 14:10:05;;;;;;;16.9;11.2;;;;;;;5.78;100;930.6841;;;;
2023/12/11 14:12:35;;;;;;;14.1;9.9;;;;;;;5.8;100;930.8201;;;;
2023/12/11 14:15:00;;;;;;;14.1;9.2;;;;;;;5.8;100;930.9016;;;;
2023/12/11 14:17:28;;;;;;;14.1;8.7;;;;;;;5.85;100;931.0739;;;;
2023/12/11 14:19:56;;;;;;;13.3;7.8;;;;;;;5.84;100;931.2073;;;;
2023/12/11 14:22:26;;;;;;;10.6;7.5;;;;;;;5.87;100;931.2023;;;;
2023/12/11 14:24:52;;;;;;;9.8;6.7;;;;;;;5.86;100;931.0387;;;;
2023/12/11 14:27:17;;;;;;;9.6;6.3;;;;;;;5.97;100;930.9512;;;;
2023/12/11 14:29:42;;;;;;;11.4;6.1;;;;;;;5.96;100;930.9614;;;;
2023/12/11 14:32:14;;;;;;;12.6;7.3;;;;;;;5.99;100;930.9311;;;;
2023/12/11 14:34:39;;;;;;;11.4;7.9;;;;;;;6.07;100;930.8045;;;;
2023/12/11 14:37:09;;;;;;;18.2;11.3;;;;;;;6.03;100;930.7794;;;;
2023/12/11 14:39:32;;;;;;;20.3;12;;;;;;;6.01;100;931.0106;;;;
2023/12/11 14:41:57;;;;;;;27.2;15.3;;;;;;;5.97;100;931.1259;;;;
2023/12/11 14:44:22;;;;;;;23;14.3;;;;;;;5.92;100;930.9814;;;;
2023/12/11 14:46:52;;;;;;;27.2;15.7;;;;;;;5.88;100;931.0105;;;;
2023/12/11 14:49:19;;;;;;;26.2;14.2;;;;;;;5.9;100;930.94;;;;
2023/12/11 14:51:42;;;;;;;23.8;14.6;;;;;;;5.86;100;931.1311;;;;
2023/12/11 14:54:08;;;;;;;41.1;23.4;;;;;;;5.89;100;931.3511;;;;
2023/12/11 14:56:37;;;;;;;37;20.5;;;;;;;5.87;100;931.4117;;;;
2023/12/11 14:59:01;;;;;;;22.6;13.2;;;;;;;5.86;100;931.2045;;;;
2023/12/11 15:01:27;;;;;;;18.1;11.2;;;;;;;5.82;100;931.215;;;;
2023/12/11 15:03:52;;;;;;;20.2;11.7;;;;;;;5.86;100;931.3475;;;;
2023/12/11 15:06:18;;;;;;;20.5;12.7;;;;;;;5.77;100;931.476;;;;
2023/12/11 15:08:44;;;;;;;20.3;12.1;;;;;;;5.75;100;931.5446;;;;
2023/12/11 15:11:15;;;;;;;17.9;11.8;;;;;;;5.69;100;931.553;;;;
2023/12/11 15:13:45;;;;;;;21;13.4;;;;;;;5.79;100;931.4891;;;;
2023/12/11 15:16:18;;;;;;;22.5;14.6;;;;;;;5.73;100;931.4596;;;;
2023/12/11 15:18:58;;;;;;;24.3;17.2;;;;;;;5.7;100;931.4615;;;;
2023/12/11 15:21:20;;;;;;;31.7;21.9;;;;;;;5.69;100;931.3793;;;;
2023/12/11 15:23:45;;;;;;;30.1;20.5;;;;;;;5.63;100;931.4352;;;;
2023/12/11 15:26:12;;;;;;;35.7;21.9;;;;;;;5.64;100;931.2986;;;;
2023/12/11 15:28:37;;;;;;;35.1;22.8;;;;;;;5.64;100;931.4479;;;;
2023/12/11 15:31:05;;;;;;;30.1;19.2;;;;;;;5.59;100;931.6829;;;;
2023/12/11 15:33:30;;;;;;;28.2;17.8;;;;;;;5.6;100;931.8552;;;;
2023/12/11 15:36:00;;;;;;;45.3;27.4;;;;;;;5.63;100;931.747;;;;
2023/12/11 15:38:25;;;;;;;38.2;24.1;;;;;;;5.62;100;931.5408;;;;
2023/12/11 15:40:50;;;;;;;35.2;21.1;;;;;;;5.6;100;931.3475;;;;
2023/12/11 15:43:15;;;;;;;32.5;21.2;;;;;;;5.65;100;931.5248;;;;
2023/12/11 15:45:44;;;;;;;34.7;22.3;;;;;;;5.7;100;931.6954;;;;
2023/12/11 15:48:10;;;;;;;36.9;23.7;;;;;;;5.58;100;931.6353;;;;
2023/12/11 15:50:36;;;;;;;38.2;25.2;;;;;;;5.52;100;931.6091;;;;
2023/12/11 15:53:03;;;;;;;33.6;23.1;;;;;;;5.51;100;931.3025;;;;
2023/12/11 15:55:33;;;;;;;26;17;;;;;;;5.6;100;931.2385;;;;
2023/12/11 15:58:00;;;;;;;36.7;20.9;;;;;;;5.6;100;931.2773;;;;
2023/12/11 16:00:26;;;;;;;52.3;24.9;;;;;;;5.59;100;931.2416;;;;
2023/12/11 16:02:53;;;;;;;37.3;19.1;;;;;;;5.51;100;931.2623;;;;
2023/12/11 16:05:21;;;;;;;20.3;11.9;;;;;;;5.57;100;931.257;;;;
2023/12/11 16:07:48;;;;;;;11.8;7.9;;;;;;;5.5;100;931.356;;;;
2023/12/11 16:10:15;;;;;;;11.3;8.2;;;;;;;5.54;100;931.4056;;;;
2023/12/11 16:12:47;;;;;;;27.4;14;;;;;;;5.69;100;931.283;;;;
2023/12/11 16:15:19;;;;;;;28.2;14.1;;;;;;;5.52;100;931.3176;;;;
2023/12/11 16:17:48;;;;;;;15.6;10.3;;;;;;;5.44;100;931.49;;;;
2023/12/11 16:20:16;;;;;;;14.3;8.7;;;;;;;5.44;100;931.423;;;;
2023/12/11 16:22:42;;;;;;;23.2;17;;;;;;;5.38;100;931.4065;;;;
2023/12/11 16:25:20;;;;;;;18;10.4;;;;;;;5.51;100;931.4281;;;;
2023/12/11 16:27:52;;;;;;;14.6;7.7;;;;;;;5.44;100;931.4672;;;;
2023/12/11 16:30:25;;;;;;;20.5;10.1;;;;;;;5.44;100;931.5722;;;;
2023/12/11 16:32:55;;;;;;;16.3;7.5;;;;;;;5.44;100;931.5848;;;;
2023/12/11 16:35:23;;;;;;;11.9;6.6;;;;;;;5.5;100;931.5464;;;;